Time;durP1;ratioP1;P1;durP2;ratioP2;P2;SDS_P1;SDS_P2;PMS_P1;PMS_P2;Temp;Humidity;BMP_temperature;BMP_pressure;BME280_temperature;BME280_humidity;BME280_pressure;Samples;Min_cycle;Max_cycle;Signal;HPM_P1;HPM_P2
2021/04/30 00:02:02;;;;;;;5.65;4.25;;;;;;;12.42;100.00;98682.45;1773930;79;20938;-65
2021/04/30 00:04:38;;;;;;;4.05;3.40;;;;;;;12.42;100.00;98681.58;1770247;79;20920;-64
2021/04/30 00:07:10;;;;;;;5.25;3.60;;;;;;;12.40;100.00;98684.70;1768452;79;20907;-64
2021/04/30 00:09:44;;;;;;;4.92;4.00;;;;;;;12.39;100.00;98682.52;1714424;82;21559;-65
2021/04/30 00:12:15;;;;;;;6.20;4.00;;;;;;;12.37;100.00;98674.19;1709275;82;21581;-65
2021/04/30 00:14:46;;;;;;;6.60;4.10;;;;;;;12.31;100.00;98676.52;1714317;82;20998;-65
2021/04/30 00:17:17;;;;;;;4.83;3.80;;;;;;;12.26;100.00;98673.92;1719625;82;20947;-65
2021/04/30 00:19:49;;;;;;;7.53;4.30;;;;;;;12.24;100.00;98669.57;1797708;78;22145;-64
2021/04/30 00:22:18;;;;;;;5.58;4.20;;;;;;;12.19;100.00;98664.38;1797738;78;21360;-64
2021/04/30 00:24:49;;;;;;;4.87;4.37;;;;;;;12.15;100.00;98662.70;1797740;78;20893;-65
2021/04/30 00:27:19;;;;;;;6.20;4.25;;;;;;;12.10;100.00;98659.28;1781105;79;21057;-65
2021/04/30 00:29:51;;;;;;;5.92;4.30;;;;;;;12.06;100.00;98655.41;1714340;82;20946;-65
2021/04/30 00:32:24;;;;;;;5.28;3.50;;;;;;;11.98;100.00;98661.72;1709208;82;20899;-64
2021/04/30 00:34:57;;;;;;;4.75;3.72;;;;;;;11.90;100.00;98656.16;1714275;82;21564;-65
2021/04/30 00:37:30;;;;;;;9.20;3.70;;;;;;;11.86;100.00;98656.67;1711145;82;20963;-65
2021/04/30 00:40:02;;;;;;;5.47;3.98;;;;;;;11.79;100.00;98653.69;1709287;82;21464;-65
2021/04/30 00:42:33;;;;;;;5.75;3.80;;;;;;;11.74;100.00;98649.36;1714267;82;20963;-65
2021/04/30 00:45:05;;;;;;;5.75;4.20;;;;;;;11.71;100.00;98649.42;1711634;82;21489;-65
2021/04/30 00:47:37;;;;;;;10.82;4.70;;;;;;;11.65;100.00;98654.36;1797745;78;21423;-64
2021/04/30 00:50:09;;;;;;;7.92;4.30;;;;;;;11.62;100.00;98652.66;1797823;78;21125;-64
2021/04/30 00:52:39;;;;;;;5.75;4.33;;;;;;;11.57;100.00;98656.27;1796677;78;21145;-65
2021/04/30 00:55:12;;;;;;;5.35;4.00;;;;;;;11.52;100.00;98652.84;1791804;78;21018;-64
2021/04/30 00:57:47;;;;;;;6.92;4.40;;;;;;;11.46;100.00;98642.39;1714293;82;20942;-64
2021/04/30 01:00:18;;;;;;;7.42;4.28;;;;;;;11.42;100.00;98645.98;1709258;82;21208;-64
2021/04/30 01:02:48;;;;;;;5.87;3.70;;;;;;;11.38;100.00;98641.66;1714233;82;20915;-64
2021/04/30 01:05:20;;;;;;;5.12;3.47;;;;;;;11.36;100.00;98636.41;1714616;82;21065;-66
2021/04/30 01:07:53;;;;;;;5.90;3.55;;;;;;;11.33;100.00;98637.74;1728217;82;21510;-64
2021/04/30 01:10:24;;;;;;;4.50;3.60;;;;;;;11.31;100.00;98632.94;1740530;81;20943;-64
2021/04/30 01:12:55;;;;;;;4.42;3.83;;;;;;;11.25;100.00;98631.72;1722207;82;21143;-65
2021/04/30 01:15:26;;;;;;;5.42;3.75;;;;;;;11.16;100.00;98630.11;1740406;81;21030;-64
2021/04/30 01:17:57;;;;;;;4.03;3.60;;;;;;;11.11;100.00;98632.41;1724128;80;21005;-64
2021/04/30 01:20:36;;;;;;;4.28;3.75;;;;;;;11.06;100.00;98632.48;1739714;81;21477;-64
2021/04/30 01:23:10;;;;;;;5.12;4.50;;;;;;;11.03;100.00;98627.26;1722175;83;21029;-64
2021/04/30 01:25:40;;;;;;;6.03;3.80;;;;;;;11.01;100.00;98628.59;1740661;81;26725;-65
2021/04/30 01:28:11;;;;;;;5.47;3.72;;;;;;;11.00;100.00;98618.94;1724243;82;21702;-65
2021/04/30 01:30:40;;;;;;;5.08;3.60;;;;;;;11.00;100.00;98611.47;1740525;81;20947;-65
2021/04/30 01:33:22;;;;;;;5.15;3.77;;;;;;;10.97;100.00;98616.35;1722120;83;21068;-65
2021/04/30 01:35:52;;;;;;;6.15;3.87;;;;;;;10.95;100.00;98614.19;1725904;81;21057;-64
2021/04/30 01:38:22;;;;;;;6.58;3.80;;;;;;;10.93;100.00;98605.42;1722207;82;21367;-64
2021/04/30 01:40:55;;;;;;;7.73;3.80;;;;;;;10.90;100.00;98598.87;1722134;83;21064;-64
2021/04/30 01:43:27;;;;;;;4.37;3.95;;;;;;;10.87;100.00;98598.02;1722239;82;21133;-64
2021/04/30 01:46:06;;;;;;;6.37;4.17;;;;;;;10.84;100.00;98606.86;1733819;82;21583;-64
2021/04/30 01:48:35;;;;;;;5.03;4.22;;;;;;;10.78;100.00;98604.77;1752121;80;21601;-64
2021/04/30 01:51:07;;;;;;;4.53;3.90;;;;;;;10.72;100.00;98596.50;1752217;80;21364;-64
2021/04/30 01:53:40;;;;;;;6.15;4.25;;;;;;;10.67;100.00;98595.70;1752094;82;21072;-64
2021/04/30 01:56:15;;;;;;;5.40;3.83;;;;;;;10.61;100.00;98595.80;1742940;80;20975;-64
2021/04/30 01:58:47;;;;;;;4.53;4.10;;;;;;;10.58;100.00;98591.44;1722290;82;21061;-64
2021/04/30 02:01:18;;;;;;;5.03;4.20;;;;;;;10.51;100.00;98593.74;1722367;83;21150;-64
2021/04/30 02:04:01;;;;;;;8.00;4.00;;;;;;;10.42;100.00;98587.28;1722957;82;21197;-64
2021/04/30 02:06:35;;;;;;;5.55;4.42;;;;;;;10.37;100.00;98593.04;1741608;81;21083;-64
2021/04/30 02:09:07;;;;;;;;;;;;;;;10.27;100.00;98595.38;1741884;82;20990;-63
2021/04/30 02:11:46;;;;;;;5.85;4.28;;;;;;;10.23;100.00;98598.50;1739160;81;20621;-63
2021/04/30 02:14:17;;;;;;;5.22;4.00;;;;;;;10.20;100.00;98589.33;1738584;82;21133;-63
2021/04/30 02:16:47;;;;;;;4.53;3.87;;;;;;;10.19;100.00;98588.86;1686069;83;21433;-63
2021/04/30 02:19:19;;;;;;;13.25;4.37;;;;;;;10.16;100.00;98594.17;1709138;82;21603;-63
2021/04/30 02:21:54;;;;;;;6.40;4.47;;;;;;;10.15;100.00;98597.70;1709295;82;21081;-65
2021/04/30 02:24:27;;;;;;;9.25;4.67;;;;;;;10.12;100.00;98598.19;1730171;81;20943;-65
2021/04/30 02:27:00;;;;;;;5.67;4.17;;;;;;;10.07;100.00;98600.44;1797721;79;20896;-65
2021/04/30 02:29:43;;;;;;;4.87;4.37;;;;;;;10.08;100.00;98600.00;1790980;78;21183;-66
2021/04/30 02:32:13;;;;;;;9.38;4.72;;;;;;;10.10;100.00;98591.63;1797458;78;21505;-63
2021/04/30 02:34:44;;;;;;;4.08;3.62;;;;;;;10.08;100.00;98598.23;1795263;78;21029;-64
2021/04/30 02:37:15;;;;;;;5.28;3.75;;;;;;;10.04;100.00;98598.30;1793643;78;21105;-65
2021/04/30 02:39:46;;;;;;;9.23;4.55;;;;;;;10.01;100.00;98599.20;1691629;82;21144;-61
2021/04/30 02:42:18;;;;;;;8.90;4.80;;;;;;;9.95;100.00;98597.96;1709758;82;21288;-64
2021/04/30 02:44:50;;;;;;;8.23;4.10;;;;;;;9.94;100.00;98608.08;1768482;79;21022;-66
2021/04/30 02:47:28;;;;;;;4.75;4.25;;;;;;;9.95;100.00;98603.23;1797452;78;20959;-65
2021/04/30 02:49:55;;;;;;;6.35;4.30;;;;;;;9.95;100.00;98608.50;1797428;78;20923;-65
2021/04/30 02:52:31;;;;;;;4.50;3.90;;;;;;;9.96;100.00;98601.02;1795932;79;21481;-65
2021/04/30 02:55:05;;;;;;;7.65;4.20;;;;;;;9.96;100.00;98605.42;1768351;78;22299;-66
2021/04/30 02:57:37;;;;;;;5.58;4.47;;;;;;;9.95;100.00;98604.99;1766368;79;21120;-67
2021/04/30 03:00:20;;;;;;;12.30;4.83;;;;;;;9.93;100.00;98598.84;1713866;82;20994;-68
2021/04/30 03:02:53;;;;;;;8.58;4.90;;;;;;;9.88;100.00;98605.48;1709288;84;21165;-62
2021/04/30 03:05:25;;;;;;;6.78;4.30;;;;;;;9.86;100.00;98602.44;1768290;79;21128;-64
2021/04/30 03:07:59;;;;;;;5.65;4.85;;;;;;;9.81;100.00;98605.13;1704612;82;21505;-64
2021/04/30 03:10:36;;;;;;;4.30;3.90;;;;;;;9.79;100.00;98607.78;1709300;82;21524;-65
2021/04/30 03:13:05;;;;;;;5.00;4.37;;;;;;;9.77;100.00;98609.56;1766371;79;21172;-66
2021/04/30 03:15:44;;;;;;;5.55;4.50;;;;;;;9.75;100.00;98610.02;1712800;82;21069;-65
2021/04/30 03:18:16;;;;;;;6.90;5.03;;;;;;;9.74;100.00;98607.41;1709304;82;21543;-65
2021/04/30 03:20:46;;;;;;;7.17;4.83;;;;;;;9.73;100.00;98607.86;1766296;80;22118;-66
2021/04/30 03:23:16;;;;;;;7.60;5.03;;;;;;;9.71;100.00;98614.03;1783634;79;20931;-65
2021/04/30 03:25:49;;;;;;;13.20;5.17;;;;;;;9.69;100.00;98605.27;1780642;78;21469;-65
2021/04/30 03:28:20;;;;;;;5.45;4.45;;;;;;;9.71;100.00;98599.55;1690646;82;21061;-65
2021/04/30 03:30:51;;;;;;;9.83;4.97;;;;;;;9.73;100.00;98608.30;1717188;81;21070;-66
2021/04/30 03:33:22;;;;;;;7.08;5.00;;;;;;;9.71;100.00;98611.39;1757584;80;22340;-64
2021/04/30 03:35:52;;;;;;;5.67;4.90;;;;;;;9.69;100.00;98611.41;1709221;82;21517;-64
2021/04/30 03:38:23;;;;;;;5.90;5.03;;;;;;;9.68;100.00;98614.06;1795212;78;20876;-64
2021/04/30 03:40:54;;;;;;;5.90;4.70;;;;;;;9.71;100.00;98617.53;1795944;79;20871;-63
2021/04/30 03:43:27;;;;;;;7.37;4.62;;;;;;;9.74;100.00;98620.13;1792285;79;21607;-65
2021/04/30 03:45:58;;;;;;;11.20;4.83;;;;;;;9.73;100.00;98617.52;1797182;78;21246;-64
2021/04/30 03:48:31;;;;;;;7.85;5.20;;;;;;;9.70;100.00;98616.23;1797875;78;21018;-65
2021/04/30 03:51:02;;;;;;;5.85;5.03;;;;;;;9.70;100.00;98616.23;1770042;79;20922;-65
2021/04/30 03:53:36;;;;;;;7.10;5.20;;;;;;;9.74;100.00;98617.50;1713485;82;21219;-68
2021/04/30 03:56:08;;;;;;;5.67;4.47;;;;;;;9.82;100.00;98611.27;1709324;84;21141;-65
2021/04/30 03:58:40;;;;;;;7.65;4.58;;;;;;;9.89;100.00;98613.81;1708499;82;22195;-65
2021/04/30 04:01:10;;;;;;;8.28;5.12;;;;;;;9.96;100.00;98605.42;1765613;80;21057;-65
2021/04/30 04:03:45;;;;;;;9.00;5.12;;;;;;;9.99;100.00;98602.30;1714400;82;21136;-66
2021/04/30 04:06:15;;;;;;;8.98;5.15;;;;;;;10.07;100.00;98606.16;1709014;82;21587;-65
2021/04/30 04:08:46;;;;;;;5.47;4.90;;;;;;;10.12;100.00;98603.46;1714420;82;21014;-65
2021/04/30 04:11:20;;;;;;;7.62;5.17;;;;;;;10.17;100.00;98601.19;1709250;84;21379;-65
2021/04/30 04:13:52;;;;;;;7.37;5.28;;;;;;;10.22;100.00;98593.25;1714349;82;20950;-66
2021/04/30 04:16:22;;;;;;;7.47;5.00;;;;;;;10.24;100.00;98600.25;1709208;84;20939;-65
2021/04/30 04:18:53;;;;;;;14.50;6.08;;;;;;;10.30;100.00;98608.52;1714373;82;21483;-65
2021/04/30 04:21:24;;;;;;;8.20;5.40;;;;;;;10.32;100.00;98602.78;1709192;82;20963;-66
2021/04/30 04:23:54;;;;;;;7.72;4.70;;;;;;;10.36;100.00;98597.44;1766209;80;21187;-65
2021/04/30 04:26:24;;;;;;;7.65;4.80;;;;;;;10.42;100.00;98604.88;1714234;82;21069;-65
2021/04/30 04:28:55;;;;;;;10.65;5.20;;;;;;;10.47;100.00;98605.23;1709125;82;20990;-65
2021/04/30 04:31:26;;;;;;;7.35;5.60;;;;;;;10.54;100.00;98606.01;1714217;82;21128;-65
2021/04/30 04:33:57;;;;;;;6.72;5.45;;;;;;;10.59;100.00;98602.86;1709170;82;20992;-65
2021/04/30 04:36:30;;;;;;;8.13;5.35;;;;;;;10.65;100.00;98604.95;1766203;81;21371;-65
2021/04/30 04:39:01;;;;;;;8.33;5.20;;;;;;;10.71;100.00;98606.63;1714230;82;21144;-65
2021/04/30 04:41:34;;;;;;;6.03;5.12;;;;;;;10.79;100.00;98609.14;1709259;82;20967;-64
2021/04/30 04:44:05;;;;;;;;;;;;;;;10.89;100.00;98606.37;1711634;84;21030;-64
2021/04/30 04:46:36;;;;;;;8.95;5.25;;;;;;;11.03;100.00;98602.19;1709149;84;20243;-64
2021/04/30 04:49:09;;;;;;;7.42;4.97;;;;;;;11.14;100.00;98602.87;1714268;82;21360;-65
2021/04/30 04:51:40;;;;;;;6.60;5.40;;;;;;;11.25;100.00;98594.31;1700463;82;21495;-64
2021/04/30 04:54:10;;;;;;;9.03;6.08;;;;;;;11.38;100.00;98603.36;1714332;82;21086;-64
2021/04/30 04:56:41;;;;;;;7.65;4.95;;;;;;;11.50;100.00;98602.69;1709233;82;21077;-64
2021/04/30 04:59:11;;;;;;;9.75;5.15;;;;;;;11.62;100.00;98610.38;1714317;82;21079;-64
2021/04/30 05:01:42;;;;;;;6.33;5.12;;;;;;;11.74;100.00;98603.98;1709170;82;22195;-64
2021/04/30 05:04:13;;;;;;;7.97;5.37;;;;;;;11.85;100.00;98609.13;1766277;81;21151;-66
2021/04/30 05:06:43;;;;;;;13.28;5.80;;;;;;;11.95;100.00;98601.44;1714212;80;20958;-66
2021/04/30 05:09:13;;;;;;;7.33;5.28;;;;;;;12.03;100.00;98602.15;1756561;80;21460;-64
2021/04/30 05:11:43;;;;;;;8.15;5.10;;;;;;;12.11;100.00;98604.18;1756524;80;21065;-64
2021/04/30 05:14:12;;;;;;;6.33;4.70;;;;;;;12.18;100.00;98608.88;1756525;80;21430;-64
2021/04/30 05:16:44;;;;;;;7.10;5.10;;;;;;;12.23;100.00;98604.37;1752200;80;20977;-64
2021/04/30 05:19:13;;;;;;;11.68;6.03;;;;;;;12.26;100.00;98597.23;1756575;80;21056;-65
2021/04/30 05:21:48;;;;;;;8.33;5.45;;;;;;;12.27;100.00;98598.98;1756475;80;20966;-65
2021/04/30 05:24:15;;;;;;;7.30;5.30;;;;;;;12.31;100.00;98611.72;1756843;80;20930;-64
2021/04/30 05:26:45;;;;;;;7.72;5.75;;;;;;;12.31;100.00;98609.52;1756518;80;21190;-65
2021/04/30 05:29:15;;;;;;;6.47;5.20;;;;;;;12.31;100.00;98610.39;1756588;80;21495;-64
2021/04/30 05:31:46;;;;;;;10.70;5.40;;;;;;;12.37;100.00;98612.91;1756566;80;21116;-64
2021/04/30 05:34:16;;;;;;;8.78;5.70;;;;;;;12.41;100.00;98613.70;1756644;80;21461;-65
2021/04/30 05:36:46;;;;;;;14.23;5.87;;;;;;;12.45;100.00;98612.73;1756642;80;21049;-66
2021/04/30 05:39:16;;;;;;;8.93;5.95;;;;;;;12.53;100.00;98607.69;1756637;80;21228;-65
2021/04/30 05:41:45;;;;;;;12.25;5.97;;;;;;;12.63;100.00;98603.05;1756561;80;21106;-65
2021/04/30 05:44:16;;;;;;;6.17;5.55;;;;;;;12.72;100.00;98600.65;1756738;80;21491;-64
2021/04/30 05:46:45;;;;;;;6.83;4.90;;;;;;;12.78;100.00;98597.44;1756545;80;20942;-64
2021/04/30 05:49:16;;;;;;;5.62;5.05;;;;;;;12.88;100.00;98598.08;1756665;80;20934;-65
2021/04/30 05:51:46;;;;;;;10.60;5.00;;;;;;;13.00;100.00;98593.81;1756687;80;21406;-65
2021/04/30 05:54:16;;;;;;;9.15;5.60;;;;;;;13.14;100.00;98597.44;1756540;80;20910;-65
2021/04/30 05:56:45;;;;;;;6.95;5.60;;;;;;;13.30;100.00;98596.66;1756693;80;21104;-65
2021/04/30 05:59:17;;;;;;;6.65;5.60;;;;;;;13.41;100.00;98595.92;1756593;80;21539;-65
2021/04/30 06:01:46;;;;;;;7.78;5.72;;;;;;;13.48;100.00;98598.37;1756658;80;21068;-65
2021/04/30 06:04:17;;;;;;;13.03;5.95;;;;;;;13.56;100.00;98604.78;1756566;80;21368;-65
2021/04/30 06:06:49;;;;;;;8.10;5.40;;;;;;;13.63;100.00;98598.41;1762095;78;21495;-65
2021/04/30 06:09:19;;;;;;;7.67;5.70;;;;;;;13.68;100.00;98593.84;1772603;79;20923;-65
2021/04/30 06:11:49;;;;;;;7.90;5.70;;;;;;;13.68;100.00;98591.20;1772539;80;20910;-65
2021/04/30 06:14:19;;;;;;;9.90;6.08;;;;;;;13.69;100.00;98590.74;1772596;81;20915;-65
2021/04/30 06:16:48;;;;;;;10.40;6.42;;;;;;;13.70;100.00;98584.53;1733242;81;21324;-65
2021/04/30 06:19:18;;;;;;;8.18;5.67;;;;;;;13.73;100.00;98578.72;1772567;81;21091;-66
2021/04/30 06:21:47;;;;;;;6.87;5.42;;;;;;;13.82;100.00;98570.51;1772564;80;20934;-65
2021/04/30 06:24:17;;;;;;;9.33;6.17;;;;;;;13.95;100.00;98572.80;1772521;81;21065;-66
2021/04/30 06:26:47;;;;;;;8.05;5.60;;;;;;;14.04;100.00;98573.41;1733374;81;21496;-66
2021/04/30 06:29:17;;;;;;;9.43;6.28;;;;;;;14.15;100.00;98571.77;1772532;80;21421;-65
2021/04/30 06:31:46;;;;;;;7.58;5.75;;;;;;;14.29;100.00;98581.53;1733191;81;21082;-66
2021/04/30 06:34:17;;;;;;;6.85;5.10;;;;;;;14.41;100.00;98579.83;1772541;81;21509;-66
2021/04/30 06:36:48;;;;;;;11.05;6.10;;;;;;;14.48;100.00;98583.20;1772514;79;21057;-66
2021/04/30 06:39:18;;;;;;;7.70;6.17;;;;;;;14.52;100.00;98576.02;1772560;81;21061;-66
2021/04/30 06:41:47;;;;;;;11.75;6.10;;;;;;;14.59;100.00;98581.54;1733284;81;21425;-65
2021/04/30 06:44:18;;;;;;;9.25;6.17;;;;;;;14.62;100.00;98576.13;1772536;79;21160;-66
2021/04/30 06:46:47;;;;;;;11.03;5.80;;;;;;;14.66;100.00;98573.80;1772455;79;21021;-66
2021/04/30 06:49:17;;;;;;;9.00;5.80;;;;;;;14.71;100.00;98570.11;1772470;81;21164;-66
2021/04/30 06:51:49;;;;;;;6.80;5.42;;;;;;;14.78;100.00;98565.47;1772597;81;21140;-66
2021/04/30 06:54:19;;;;;;;9.05;5.92;;;;;;;14.82;100.00;98557.81;1772884;80;22099;-66
2021/04/30 06:56:49;;;;;;;8.88;6.25;;;;;;;14.86;100.00;98559.45;1733297;81;20978;-65
2021/04/30 06:59:20;;;;;;;9.20;6.45;;;;;;;14.93;100.00;98560.98;1772523;81;21055;-66
2021/04/30 07:01:49;;;;;;;35.20;7.28;;;;;;;15.01;100.00;98559.39;1772582;81;20938;-65
2021/04/30 07:04:19;;;;;;;9.75;6.42;;;;;;;15.03;100.00;98558.88;1772518;79;21102;-65
2021/04/30 07:06:49;;;;;;;8.88;5.62;;;;;;;15.08;100.00;98563.13;1771242;80;21358;-65
2021/04/30 07:09:18;;;;;;;7.20;5.80;;;;;;;15.17;100.00;98562.44;1766204;81;21018;-66
2021/04/30 07:11:48;;;;;;;10.00;6.08;;;;;;;15.31;100.00;98564.16;1714340;82;21133;-65
2021/04/30 07:14:19;;;;;;;8.40;6.35;;;;;;;15.38;100.00;98560.37;1709275;84;21612;-66
2021/04/30 07:16:48;;;;;;;8.45;6.28;;;;;;;15.45;100.00;98557.90;1714338;82;20999;-66
2021/04/30 07:19:20;;;;;;;7.08;5.70;;;;;;;15.55;100.00;98553.99;1709256;84;21383;-66
2021/04/30 07:21:49;;;;;;;10.32;5.30;;;;;;;15.68;100.00;98558.02;1766187;80;20971;-66
2021/04/30 07:24:19;;;;;;;7.37;5.92;;;;;;;15.79;100.00;98565.60;1766227;80;21572;-67
2021/04/30 07:26:49;;;;;;;11.33;6.22;;;;;;;15.88;100.00;98563.06;1714273;82;21058;-66
2021/04/30 07:29:19;;;;;;;8.98;5.60;;;;;;;15.98;100.00;98555.15;1709338;82;21169;-66
2021/04/30 07:31:48;;;;;;;53.50;7.75;;;;;;;16.10;100.00;98557.84;1766259;81;21369;-66
2021/04/30 07:34:20;;;;;;;12.75;5.65;;;;;;;16.20;100.00;98560.09;1763116;81;21137;-66
2021/04/30 07:36:49;;;;;;;13.05;6.40;;;;;;;16.29;100.00;98558.88;1766186;81;21129;-66
2021/04/30 07:39:18;;;;;;;8.38;5.17;;;;;;;16.33;100.00;98561.82;1766257;81;21569;-66
2021/04/30 07:41:48;;;;;;;11.88;6.03;;;;;;;16.37;100.00;98565.63;1714336;82;21271;-66
2021/04/30 07:44:18;;;;;;;8.65;6.28;;;;;;;16.42;100.00;98565.45;1709208;82;21366;-66
2021/04/30 07:46:47;;;;;;;6.62;5.80;;;;;;;16.50;100.00;98562.48;1766132;81;21002;-66
2021/04/30 07:49:18;;;;;;;8.53;5.58;;;;;;;16.57;100.00;98558.23;1714287;82;21525;-67
2021/04/30 07:51:48;;;;;;;12.93;6.37;;;;;;;16.65;100.00;98562.81;1709204;82;20991;-67
2021/04/30 07:54:18;;;;;;;10.13;6.17;;;;;;;16.68;100.00;98568.48;1714289;82;21010;-67
2021/04/30 07:56:49;;;;;;;9.53;6.60;;;;;;;16.71;100.00;98563.50;1709174;84;21264;-67
2021/04/30 07:59:18;;;;;;;11.53;6.10;;;;;;;16.78;100.00;98560.98;1714182;82;20958;-67
2021/04/30 08:01:48;;;;;;;9.48;6.08;;;;;;;16.90;100.00;98559.16;1709278;82;21557;-66
2021/04/30 08:04:18;;;;;;;10.88;5.85;;;;;;;17.04;100.00;98560.81;1714198;82;21018;-68
2021/04/30 08:06:47;;;;;;;6.78;5.75;;;;;;;17.27;100.00;98556.71;1709290;83;21028;-68
2021/04/30 08:09:17;;;;;;;10.78;5.97;;;;;;;17.42;100.00;98539.66;1740540;81;21193;-68
2021/04/30 08:11:47;;;;;;;7.42;5.95;;;;;;;17.52;100.00;98545.89;1722282;82;20985;-69
2021/04/30 08:14:17;;;;;;;7.95;5.10;;;;;;;17.76;100.00;98523.09;1722200;82;20990;-69
2021/04/30 08:16:47;;;;;;;9.68;5.33;;;;;;;17.76;100.00;98523.09;1740482;81;20998;-68
2021/04/30 08:19:17;;;;;;;7.40;5.83;;;;;;;17.90;100.00;98536.20;1722241;82;21552;-68
2021/04/30 08:21:50;;;;;;;16.35;5.33;;;;;;;17.99;100.00;98538.95;1740517;81;21427;-66
2021/04/30 08:24:22;;;;;;;9.33;5.92;;;;;;;18.07;100.00;98538.13;1722167;82;20974;-66
2021/04/30 08:26:51;;;;;;;9.60;5.55;;;;;;;18.16;100.00;98536.37;1740535;81;20927;-66
2021/04/30 08:29:20;;;;;;;6.05;4.90;;;;;;;18.41;100.00;98540.55;1722181;83;21076;-66
2021/04/30 08:31:51;;;;;;;9.23;5.75;;;;;;;18.41;100.00;98540.55;1740532;81;20892;-67
2021/04/30 08:34:20;;;;;;;12.20;5.90;;;;;;;18.51;100.00;98531.20;1722232;82;21198;-67
2021/04/30 08:36:52;;;;;;;7.42;5.65;;;;;;;18.60;100.00;98540.09;1736744;81;20911;-67
2021/04/30 08:39:21;;;;;;;11.30;5.58;;;;;;;18.75;100.00;98532.70;1695607;83;20957;-66
2021/04/30 08:41:51;;;;;;;20.40;5.08;;;;;;;18.91;100.00;98527.94;1740623;81;21489;-66
2021/04/30 08:44:21;;;;;;;6.65;5.10;;;;;;;19.09;100.00;98522.56;1722245;82;20950;-66
2021/04/30 08:46:53;;;;;;;18.73;6.28;;;;;;;19.29;100.00;98513.53;1740511;81;22032;-66
2021/04/30 08:49:23;;;;;;;14.60;6.83;;;;;;;19.41;100.00;98518.75;1722345;82;20942;-66
2021/04/30 08:51:52;;;;;;;8.23;5.22;;;;;;;19.48;100.00;98523.70;1740554;81;21092;-67
2021/04/30 08:54:22;;;;;;;12.05;5.37;;;;;;;19.61;100.00;98529.30;1721478;82;21172;-66
2021/04/30 08:57:00;;;;;;;11.55;5.55;;;;;;;19.74;100.00;98526.36;1740084;81;21087;-68
2021/04/30 08:59:30;;;;;;;8.63;5.92;;;;;;;19.78;100.00;98521.72;1720955;82;21366;-65
2021/04/30 09:02:00;;;;;;;14.40;5.05;;;;;;;19.81;100.00;98522.89;1740495;81;21198;-68
2021/04/30 09:04:34;;;;;;;6.50;5.40;;;;;;;19.83;100.00;98520.13;1722175;83;21097;-68
2021/04/30 09:07:15;;;;;;;8.90;5.08;;;;;;;19.86;100.00;98521.30;1740416;81;20915;-67
2021/04/30 09:10:11;;;;;;;6.97;4.78;;;;;;;19.91;100.00;98517.47;1721708;83;21017;-68
2021/04/30 09:12:41;;;;;;;8.80;5.05;;;;;;;19.99;100.00;98519.25;1740334;81;21512;-68
2021/04/30 09:15:21;;;;;;;5.90;4.70;;;;;;;20.05;99.20;98522.06;1695388;83;21205;-68
2021/04/30 09:17:51;;;;;;;15.78;5.45;;;;;;;20.11;99.03;98528.42;1740545;81;21061;-66
2021/04/30 09:20:21;;;;;;;8.23;3.98;;;;;;;20.17;98.73;98523.20;1722079;83;21093;-66
2021/04/30 09:22:50;;;;;;;9.75;4.33;;;;;;;20.24;99.88;98529.48;1740021;81;21041;-67
2021/04/30 09:25:23;;;;;;;9.70;4.50;;;;;;;20.36;98.11;98536.88;1722030;82;21380;-67
2021/04/30 09:27:55;;;;;;;9.15;4.12;;;;;;;20.51;96.40;98524.46;1740354;81;20979;-67
2021/04/30 09:30:30;;;;;;;6.58;4.12;;;;;;;20.66;94.23;98521.39;1721065;82;21659;-67
2021/04/30 09:33:20;;;;;;;5.85;3.95;;;;;;;20.71;91.99;98511.27;1739799;81;21303;-67
2021/04/30 09:35:56;;;;;;;5.80;4.00;;;;;;;20.73;92.03;98512.05;1722091;82;21109;-67
2021/04/30 09:38:32;;;;;;;8.23;3.72;;;;;;;20.82;92.79;98520.06;1740489;81;21370;-66
2021/04/30 09:41:10;;;;;;;10.93;4.30;;;;;;;20.93;92.48;98505.56;1721964;83;21152;-67
2021/04/30 09:43:47;;;;;;;7.53;4.15;;;;;;;21.04;88.56;98505.80;1739340;81;21058;-69
2021/04/30 09:46:36;;;;;;;8.45;4.42;;;;;;;21.13;88.65;98509.27;1721775;83;21009;-67
2021/04/30 09:49:12;;;;;;;6.85;4.17;;;;;;;21.20;85.17;98506.61;1740374;81;21042;-68
2021/04/30 09:51:50;;;;;;;7.45;3.87;;;;;;;21.21;85.33;98496.75;1722066;83;21363;-68
2021/04/30 09:54:28;;;;;;;9.83;4.30;;;;;;;21.29;87.94;98501.25;1739406;81;21185;-68
2021/04/30 09:57:26;;;;;;;22.87;4.95;;;;;;;21.40;88.32;98492.07;1721416;82;20946;-67
2021/04/30 10:00:11;;;;;;;9.00;4.50;;;;;;;21.57;88.98;98492.38;1740396;81;21140;-66
2021/04/30 10:02:42;;;;;;;5.45;4.00;;;;;;;21.66;88.28;98489.13;1693958;83;21108;-66
2021/04/30 10:05:22;;;;;;;6.47;4.00;;;;;;;21.78;85.63;98474.13;1740089;81;21370;-66
2021/04/30 10:07:52;;;;;;;6.55;3.67;;;;;;;21.82;81.71;98487.73;1715625;83;21188;-67
2021/04/30 10:10:23;;;;;;;7.35;4.12;;;;;;;21.87;81.24;98484.28;1714318;82;21493;-68
2021/04/30 10:12:58;;;;;;;5.33;3.90;;;;;;;21.92;79.10;98483.04;1709211;84;21070;-67
2021/04/30 10:15:27;;;;;;;8.78;4.22;;;;;;;21.99;79.38;98480.83;1766279;81;21093;-68
2021/04/30 10:17:57;;;;;;;9.10;4.33;;;;;;;22.05;79.53;98477.78;1714302;82;21257;-68
2021/04/30 10:20:28;;;;;;;18.32;4.47;;;;;;;22.15;80.91;98471.34;1709120;84;21164;-67
2021/04/30 10:22:59;;;;;;;5.42;4.00;;;;;;;22.24;79.67;98470.79;1714410;82;21148;-66
2021/04/30 10:25:28;;;;;;;9.55;3.60;;;;;;;22.32;78.51;98464.92;1709414;82;21129;-67
2021/04/30 10:27:58;;;;;;;5.60;3.30;;;;;;;22.38;79.53;98461.84;1793565;78;21117;-68
2021/04/30 10:30:56;;;;;;;6.95;3.77;;;;;;;22.44;77.55;98465.47;1777931;78;22174;-69
2021/04/30 10:33:42;;;;;;;7.33;3.98;;;;;;;22.46;77.56;98459.03;1782240;78;21141;-68
2021/04/30 10:36:19;;;;;;;7.22;3.60;;;;;;;22.50;77.71;98462.37;1794891;80;21487;-69
2021/04/30 10:38:53;;;;;;;9.13;3.58;;;;;;;22.56;75.50;98454.77;1727988;82;20952;-69
2021/04/30 10:41:40;;;;;;;6.25;3.20;;;;;;;22.58;75.71;98443.92;1737273;82;21478;-69
2021/04/30 10:44:15;;;;;;;11.35;3.15;;;;;;;22.64;73.57;98444.86;1737174;82;21215;-69
2021/04/30 10:46:49;;;;;;;7.15;3.22;;;;;;;22.77;75.93;98448.97;1737009;82;21081;-68
2021/04/30 10:49:21;;;;;;;4.65;3.00;;;;;;;22.95;72.96;98446.90;1795990;79;20936;-68
2021/04/30 10:52:17;;;;;;;5.05;3.15;;;;;;;23.09;70.52;98447.69;1726917;82;21201;-69
2021/04/30 10:55:11;;;;;;;7.72;3.27;;;;;;;23.20;68.06;98446.50;1727868;83;21090;-68
2021/04/30 10:57:58;;;;;;;7.78;3.25;;;;;;;23.16;64.48;98430.64;1737172;82;21809;-68
2021/04/30 11:00:41;;;;;;;9.05;3.87;;;;;;;23.06;64.30;98441.66;1727819;82;21553;-70
2021/04/30 11:03:20;;;;;;;5.00;3.00;;;;;;;22.96;63.61;98433.34;1737152;82;21775;-70
2021/04/30 11:06:04;;;;;;;11.22;2.83;;;;;;;22.92;66.41;98431.34;1794829;79;21200;-70
2021/04/30 11:08:50;;;;;;;6.78;3.08;;;;;;;22.93;65.40;98432.21;1729813;82;21149;-70
2021/04/30 11:11:36;;;;;;;5.70;3.05;;;;;;;22.94;64.46;98428.55;1733067;82;22221;-70
2021/04/30 11:14:22;;;;;;;4.45;3.02;;;;;;;22.94;65.26;98428.55;1802249;79;21537;-70
2021/04/30 11:16:56;;;;;;;8.23;3.30;;;;;;;22.99;66.75;98419.69;1733819;82;20948;-70
2021/04/30 11:19:31;;;;;;;8.25;3.20;;;;;;;23.00;62.52;98412.48;1802085;79;21595;-70
2021/04/30 11:22:13;;;;;;;7.00;3.10;;;;;;;22.92;61.94;98407.14;1733702;82;21065;-70
2021/04/30 11:24:46;;;;;;;8.28;3.20;;;;;;;22.83;61.09;98409.59;1730815;82;22470;-70
2021/04/30 11:27:24;;;;;;;9.30;3.45;;;;;;;22.74;60.58;98402.13;1733777;82;21121;-70
2021/04/30 11:30:21;;;;;;;14.53;3.20;;;;;;;22.63;61.57;98402.33;1728278;82;21181;-70
2021/04/30 11:32:55;;;;;;;5.17;2.90;;;;;;;22.56;61.48;98392.09;1802219;79;20903;-70
2021/04/30 11:35:26;;;;;;;8.00;2.70;;;;;;;22.58;64.31;98388.34;1802125;79;20927;-70
2021/04/30 11:37:56;;;;;;;6.17;3.20;;;;;;;22.74;64.74;98385.98;1802333;79;21359;-70
2021/04/30 11:40:27;;;;;;;5.53;2.60;;;;;;;22.85;61.59;98388.36;1802277;79;21014;-70
2021/04/30 11:43:06;;;;;;;7.75;3.02;;;;;;;22.98;61.38;98384.34;1802243;79;21010;-70
2021/04/30 11:45:37;;;;;;;8.78;2.87;;;;;;;23.09;60.25;98376.88;1733787;82;20990;-70
2021/04/30 11:48:09;;;;;;;4.05;2.50;;;;;;;23.07;59.27;98371.61;1802285;79;21141;-70
2021/04/30 11:50:39;;;;;;;6.10;2.40;;;;;;;22.98;58.01;98368.21;1733643;82;21217;-70
2021/04/30 11:53:14;;;;;;;8.85;2.30;;;;;;;22.94;57.45;98369.39;1733616;82;20916;-70